sensor_id;sensor_type;location;lat;lon;timestamp;pressure;altitude;pressure_sealevel;temperature;humidity
59608;BME280;45426;44.726;10.390;2022-12-29T01:50:08;101288.19;;;10.13;100.00
59608;BME280;45426;44.726;10.390;2022-12-29T01:53:19;101315.22;;;9.96;100.00
59608;BME280;45426;44.726;10.390;2022-12-29T01:56:13;101306.94;;;10.37;100.00
59608;BME280;45426;44.726;10.390;2022-12-29T02:02:35;101306.72;;;9.61;100.00
59608;BME280;45426;44.726;10.390;2022-12-29T02:08:06;101304.75;;;10.25;100.00
59608;BME280;45426;44.726;10.390;2022-12-29T02:10:49;101304.19;;;10.15;100.00
59608;BME280;45426;44.726;10.390;2022-12-29T02:32:13;101281.91;;;10.04;100.00
59608;BME280;45426;44.726;10.390;2022-12-29T02:55:00;101259.69;;;10.24;100.00
59608;BME280;45426;44.726;10.390;2022-12-29T02:58:20;101248.25;;;10.14;100.00
59608;BME280;45426;44.726;10.390;2022-12-29T03:10:48;101260.50;;;10.25;100.00
59608;BME280;45426;44.726;10.390;2022-12-29T03:20:01;101227.78;;;10.07;100.00
59608;BME280;45426;44.726;10.390;2022-12-29T03:23:10;101234.69;;;9.91;100.00
59608;BME280;45426;44.726;10.390;2022-12-29T03:26:25;101230.75;;;10.20;100.00
59608;BME280;45426;44.726;10.390;2022-12-29T03:29:04;101229.81;;;10.02;100.00
59608;BME280;45426;44.726;10.390;2022-12-29T03:31:48;101232.34;;;9.76;100.00
59608;BME280;45426;44.726;10.390;2022-12-29T03:34:26;101221.53;;;9.62;100.00
59608;BME280;45426;44.726;10.390;2022-12-29T03:37:07;101230.75;;;9.75;100.00
59608;BME280;45426;44.726;10.390;2022-12-29T03:39:56;101228.53;;;9.99;100.00
59608;BME280;45426;44.726;10.390;2022-12-29T03:42:30;101228.28;;;10.09;100.00
59608;BME280;45426;44.726;10.390;2022-12-29T03:45:06;101225.69;;;10.27;100.00
59608;BME280;45426;44.726;10.390;2022-12-29T03:47:40;101227.97;;;10.11;100.00
59608;BME280;45426;44.726;10.390;2022-12-29T03:50:28;101222.47;;;10.02;100.00
59608;BME280;45426;44.726;10.390;2022-12-29T03:53:25;101231.00;;;10.09;100.00
59608;BME280;45426;44.726;10.390;2022-12-29T03:57:03;101237.91;;;10.16;100.00
59608;BME280;45426;44.726;10.390;2022-12-29T03:59:43;101234.66;;;10.05;100.00
59608;BME280;45426;44.726;10.390;2022-12-29T04:02:21;101234.94;;;10.03;100.00
59608;BME280;45426;44.726;10.390;2022-12-29T04:05:00;101242.53;;;10.15;100.00
59608;BME280;45426;44.726;10.390;2022-12-29T04:07:33;101243.28;;;10.07;100.00
59608;BME280;45426;44.726;10.390;2022-12-29T04:10:20;101243.72;;;9.64;100.00
59608;BME280;45426;44.726;10.390;2022-12-29T04:12:51;101240.88;;;10.05;100.00
59608;BME280;45426;44.726;10.390;2022-12-29T04:15:36;101228.16;;;10.15;100.00
59608;BME280;45426;44.726;10.390;2022-12-29T04:18:15;101235.22;;;10.16;100.00
59608;BME280;45426;44.726;10.390;2022-12-29T04:20:54;101252.66;;;10.23;100.00
59608;BME280;45426;44.726;10.390;2022-12-29T04:23:36;101256.47;;;10.36;100.00
59608;BME280;45426;44.726;10.390;2022-12-29T04:26:09;101259.13;;;10.14;100.00
59608;BME280;45426;44.726;10.390;2022-12-29T04:28:42;101260.19;;;10.04;100.00
59608;BME280;45426;44.726;10.390;2022-12-29T04:31:15;101263.50;;;9.78;100.00
59608;BME280;45426;44.726;10.390;2022-12-29T04:33:47;101254.38;;;9.97;100.00
59608;BME280;45426;44.726;10.390;2022-12-29T04:36:21;101258.25;;;9.82;100.00
59608;BME280;45426;44.726;10.390;2022-12-29T04:39:28;101258.38;;;9.77;100.00
59608;BME280;45426;44.726;10.390;2022-12-29T04:45:14;101257.78;;;9.66;100.00
59608;BME280;45426;44.726;10.390;2022-12-29T04:47:48;101261.03;;;10.13;100.00
59608;BME280;45426;44.726;10.390;2022-12-29T04:50:50;101248.31;;;9.77;100.00
59608;BME280;45426;44.726;10.390;2022-12-29T04:53:46;101250.25;;;9.63;100.00
59608;BME280;45426;44.726;10.390;2022-12-29T04:56:23;101244.53;;;10.01;100.00
59608;BME280;45426;44.726;10.390;2022-12-29T04:58:54;101257.09;;;10.19;100.00
59608;BME280;45426;44.726;10.390;2022-12-29T05:01:31;101235.06;;;9.98;100.00
59608;BME280;45426;44.726;10.390;2022-12-29T05:04:13;101246.19;;;9.88;100.00
59608;BME280;45426;44.726;10.390;2022-12-29T05:06:47;101247.69;;;9.44;100.00
59608;BME280;45426;44.726;10.390;2022-12-29T05:19:12;101250.00;;;10.09;100.00
59608;BME280;45426;44.726;10.390;2022-12-29T05:28:52;101247.22;;;9.78;100.00
59608;BME280;45426;44.726;10.390;2022-12-29T05:31:24;101247.47;;;9.54;100.00
59608;BME280;45426;44.726;10.390;2022-12-29T05:33:59;101253.75;;;10.00;100.00
59608;BME280;45426;44.726;10.390;2022-12-29T05:36:28;101260.91;;;9.96;100.00
59608;BME280;45426;44.726;10.390;2022-12-29T05:39:11;101263.47;;;10.15;100.00
59608;BME280;45426;44.726;10.390;2022-12-29T05:41:39;101255.00;;;10.16;100.00
59608;BME280;45426;44.726;10.390;2022-12-29T05:44:16;101261.75;;;9.46;100.00
59608;BME280;45426;44.726;10.390;2022-12-29T05:46:57;101269.44;;;9.66;100.00
59608;BME280;45426;44.726;10.390;2022-12-29T05:49:44;101288.09;;;10.18;100.00
59608;BME280;45426;44.726;10.390;2022-12-29T05:52:15;101275.38;;;10.27;100.00
59608;BME280;45426;44.726;10.390;2022-12-29T05:54:50;101274.97;;;9.75;100.00
59608;BME280;45426;44.726;10.390;2022-12-29T05:57:16;101284.44;;;9.64;100.00
59608;BME280;45426;44.726;10.390;2022-12-29T05:59:44;101291.97;;;10.03;100.00
59608;BME280;45426;44.726;10.390;2022-12-29T06:02:16;101292.81;;;9.90;100.00
59608;BME280;45426;44.726;10.390;2022-12-29T06:04:41;101278.56;;;9.84;100.00
59608;BME280;45426;44.726;10.390;2022-12-29T06:07:07;101283.19;;;9.70;100.00
59608;BME280;45426;44.726;10.390;2022-12-29T06:09:32;101297.25;;;9.72;100.00
59608;BME280;45426;44.726;10.390;2022-12-29T06:12:01;101300.25;;;9.84;100.00
59608;BME280;45426;44.726;10.390;2022-12-29T06:14:35;101294.69;;;10.03;100.00
59608;BME280;45426;44.726;10.390;2022-12-29T06:17:15;101291.03;;;9.71;100.00
59608;BME280;45426;44.726;10.390;2022-12-29T06:20:47;101278.75;;;9.74;100.00
59608;BME280;45426;44.726;10.390;2022-12-29T06:23:50;101277.91;;;9.87;100.00
59608;BME280;45426;44.726;10.390;2022-12-29T06:26:50;101271.81;;;9.82;100.00
59608;BME280;45426;44.726;10.390;2022-12-29T06:29:18;101275.78;;;9.62;100.00
59608;BME280;45426;44.726;10.390;2022-12-29T06:31:49;101295.59;;;9.62;100.00
59608;BME280;45426;44.726;10.390;2022-12-29T06:34:18;101304.06;;;9.97;100.00
59608;BME280;45426;44.726;10.390;2022-12-29T06:36:53;101270.94;;;10.09;100.00
59608;BME280;45426;44.726;10.390;2022-12-29T06:39:25;101260.13;;;9.59;100.00
59608;BME280;45426;44.726;10.390;2022-12-29T06:44:40;101281.28;;;9.20;100.00
59608;BME280;45426;44.726;10.390;2022-12-29T06:47:19;101285.28;;;9.23;100.00
59608;BME280;45426;44.726;10.390;2022-12-29T06:49:47;101297.22;;;9.49;100.00
59608;BME280;45426;44.726;10.390;2022-12-29T06:52:14;101276.78;;;10.02;100.00
59608;BME280;45426;44.726;10.390;2022-12-29T06:54:39;101275.06;;;10.06;100.00
59608;BME280;45426;44.726;10.390;2022-12-29T06:57:05;101273.25;;;10.24;100.00
59608;BME280;45426;44.726;10.390;2022-12-29T06:59:30;101286.91;;;9.74;100.00
59608;BME280;45426;44.726;10.390;2022-12-29T07:02:01;101287.09;;;10.14;100.00
59608;BME280;45426;44.726;10.390;2022-12-29T07:25:31;101300.44;;;9.38;100.00
59608;BME280;45426;44.726;10.390;2022-12-29T07:47:31;101271.19;;;10.21;100.00
59608;BME280;45426;44.726;10.390;2022-12-29T08:01:25;101271.53;;;10.06;100.00
59608;BME280;45426;44.726;10.390;2022-12-29T08:18:47;101280.91;;;10.22;100.00
59608;BME280;45426;44.726;10.390;2022-12-29T13:43:35;101152.78;;;10.92;100.00
59608;BME280;45426;44.726;10.390;2022-12-29T13:46:33;101154.66;;;10.82;100.00
59608;BME280;45426;44.726;10.390;2022-12-29T13:49:20;101165.25;;;10.44;100.00
59608;BME280;45426;44.726;10.390;2022-12-29T13:51:49;101160.22;;;10.68;100.00
59608;BME280;45426;44.726;10.390;2022-12-29T13:54:42;101154.56;;;10.47;100.00
59608;BME280;45426;44.726;10.390;2022-12-29T13:57:23;101168.41;;;10.15;100.00
59608;BME280;45426;44.726;10.390;2022-12-29T14:00:20;101156.16;;;10.48;100.00
59608;BME280;45426;44.726;10.390;2022-12-29T14:03:37;101165.41;;;10.16;100.00
59608;BME280;45426;44.726;10.390;2022-12-29T14:06:32;101148.88;;;10.66;100.00
59608;BME280;45426;44.726;10.390;2022-12-29T14:09:06;101156.25;;;10.35;100.00
59608;BME280;45426;44.726;10.390;2022-12-29T14:11:52;101164.41;;;10.35;100.00
59608;BME280;45426;44.726;10.390;2022-12-29T14:14:22;101164.75;;;10.19;100.00
59608;BME280;45426;44.726;10.390;2022-12-29T14:16:50;101175.38;;;10.29;100.00
59608;BME280;45426;44.726;10.390;2022-12-29T14:19:21;101173.94;;;10.63;100.00
59608;BME280;45426;44.726;10.390;2022-12-29T14:21:58;101154.97;;;10.81;100.00
59608;BME280;45426;44.726;10.390;2022-12-29T14:24:42;101148.44;;;10.82;100.00
59608;BME280;45426;44.726;10.390;2022-12-29T14:29:48;101144.75;;;10.38;100.00
59608;BME280;45426;44.726;10.390;2022-12-29T14:32:35;101150.94;;;10.69;100.00
59608;BME280;45426;44.726;10.390;2022-12-29T14:35:37;101138.75;;;10.58;100.00
59608;BME280;45426;44.726;10.390;2022-12-29T14:38:12;101143.59;;;9.99;100.00
59608;BME280;45426;44.726;10.390;2022-12-29T14:40:43;101147.78;;;10.05;100.00
59608;BME280;45426;44.726;10.390;2022-12-29T14:43:16;101144.25;;;10.04;100.00
59608;BME280;45426;44.726;10.390;2022-12-29T14:45:51;101140.66;;;10.18;100.00
59608;BME280;45426;44.726;10.390;2022-12-29T14:48:32;101141.97;;;10.60;100.00
59608;BME280;45426;44.726;10.390;2022-12-29T14:50:58;101149.63;;;10.58;100.00
59608;BME280;45426;44.726;10.390;2022-12-29T14:53:42;101154.88;;;10.55;100.00
59608;BME280;45426;44.726;10.390;2022-12-29T14:56:14;101149.16;;;10.56;100.00
59608;BME280;45426;44.726;10.390;2022-12-29T14:58:50;101149.31;;;10.51;100.00
59608;BME280;45426;44.726;10.390;2022-12-29T15:01:36;101137.44;;;10.47;100.00
59608;BME280;45426;44.726;10.390;2022-12-29T15:04:23;101143.94;;;10.06;100.00
59608;BME280;45426;44.726;10.390;2022-12-29T15:06:51;101140.59;;;10.09;100.00
59608;BME280;45426;44.726;10.390;2022-12-29T15:12:01;101132.63;;;10.13;100.00
59608;BME280;45426;44.726;10.390;2022-12-29T15:15:01;101124.19;;;10.14;100.00
59608;BME280;45426;44.726;10.390;2022-12-29T15:17:33;101116.72;;;10.51;100.00
59608;BME280;45426;44.726;10.390;2022-12-29T15:20:14;101126.75;;;10.42;100.00
59608;BME280;45426;44.726;10.390;2022-12-29T15:22:54;101136.19;;;9.90;100.00
59608;BME280;45426;44.726;10.390;2022-12-29T15:25:21;101153.16;;;9.74;100.00
59608;BME280;45426;44.726;10.390;2022-12-29T15:27:51;101135.13;;;10.00;100.00
59608;BME280;45426;44.726;10.390;2022-12-29T15:30:18;101124.09;;;10.28;100.00
59608;BME280;45426;44.726;10.390;2022-12-29T15:32:45;101121.66;;;10.26;100.00
59608;BME280;45426;44.726;10.390;2022-12-29T15:35:26;101103.19;;;9.97;100.00
59608;BME280;45426;44.726;10.390;2022-12-29T15:37:52;101102.19;;;10.24;100.00
59608;BME280;45426;44.726;10.390;2022-12-29T15:40:26;101112.13;;;9.98;100.00
59608;BME280;45426;44.726;10.390;2022-12-29T15:43:12;101120.34;;;9.84;100.00
59608;BME280;45426;44.726;10.390;2022-12-29T15:45:40;101112.44;;;9.96;100.00
59608;BME280;45426;44.726;10.390;2022-12-29T15:48:18;101121.59;;;10.09;100.00
59608;BME280;45426;44.726;10.390;2022-12-29T15:50:45;101123.41;;;9.91;100.00
59608;BME280;45426;44.726;10.390;2022-12-29T15:53:18;101107.59;;;10.16;100.00
59608;BME280;45426;44.726;10.390;2022-12-29T15:55:43;101089.09;;;10.26;100.00
59608;BME280;45426;44.726;10.390;2022-12-29T15:58:24;101093.31;;;10.41;100.00
59608;BME280;45426;44.726;10.390;2022-12-29T16:00:58;101094.56;;;10.04;100.00
59608;BME280;45426;44.726;10.390;2022-12-29T16:03:26;101104.47;;;10.00;100.00
59608;BME280;45426;44.726;10.390;2022-12-29T16:06:06;101103.16;;;10.28;100.00
59608;BME280;45426;44.726;10.390;2022-12-29T16:08:37;101094.94;;;10.11;100.00
59608;BME280;45426;44.726;10.390;2022-12-29T16:11:27;101092.44;;;10.23;100.00
59608;BME280;45426;44.726;10.390;2022-12-29T16:13:55;101093.72;;;9.95;100.00
59608;BME280;45426;44.726;10.390;2022-12-29T16:16:31;101107.19;;;10.00;100.00
59608;BME280;45426;44.726;10.390;2022-12-29T16:18:57;101103.31;;;10.23;100.00
59608;BME280;45426;44.726;10.390;2022-12-29T16:21:29;101098.47;;;9.80;100.00
59608;BME280;45426;44.726;10.390;2022-12-29T16:24:01;101097.06;;;10.23;100.00
59608;BME280;45426;44.726;10.390;2022-12-29T16:26:33;101100.06;;;10.13;100.00
59608;BME280;45426;44.726;10.390;2022-12-29T16:29:05;101102.78;;;10.13;100.00
59608;BME280;45426;44.726;10.390;2022-12-29T16:33:57;101118.31;;;9.89;100.00
59608;BME280;45426;44.726;10.390;2022-12-29T16:36:28;101112.19;;;10.15;100.00
59608;BME280;45426;44.726;10.390;2022-12-29T16:39:36;101115.53;;;9.81;100.00
59608;BME280;45426;44.726;10.390;2022-12-29T16:48:10;101117.75;;;9.79;100.00
59608;BME280;45426;44.726;10.390;2022-12-29T16:50:43;101098.53;;;9.98;100.00
59608;BME280;45426;44.726;10.390;2022-12-29T16:53:23;101108.44;;;10.02;100.00
59608;BME280;45426;44.726;10.390;2022-12-29T16:55:53;101111.19;;;10.34;100.00
59608;BME280;45426;44.726;10.390;2022-12-29T16:58:23;101116.44;;;9.99;100.00
59608;BME280;45426;44.726;10.390;2022-12-29T17:00:59;101121.50;;;9.91;100.00
59608;BME280;45426;44.726;10.390;2022-12-29T17:03:37;101118.41;;;10.38;100.00
59608;BME280;45426;44.726;10.390;2022-12-29T17:06:04;101116.59;;;10.02;100.00
59608;BME280;45426;44.726;10.390;2022-12-29T17:08:40;101116.34;;;10.44;100.00
59608;BME280;45426;44.726;10.390;2022-12-29T17:11:30;101110.75;;;10.09;100.00
59608;BME280;45426;44.726;10.390;2022-12-29T17:14:18;101107.97;;;10.00;100.00
59608;BME280;45426;44.726;10.390;2022-12-29T17:16:45;101109.19;;;10.17;100.00
59608;BME280;45426;44.726;10.390;2022-12-29T17:19:44;101122.72;;;9.85;100.00
59608;BME280;45426;44.726;10.390;2022-12-29T17:22:18;101132.59;;;9.81;100.00
59608;BME280;45426;44.726;10.390;2022-12-29T17:24:46;101141.66;;;9.99;100.00
59608;BME280;45426;44.726;10.390;2022-12-29T17:27:20;101150.00;;;10.34;100.00
59608;BME280;45426;44.726;10.390;2022-12-29T17:29:47;101149.53;;;10.32;100.00
59608;BME280;45426;44.726;10.390;2022-12-29T17:32:13;101137.34;;;10.61;100.00
59608;BME280;45426;44.726;10.390;2022-12-29T17:34:40;101146.81;;;10.09;100.00
59608;BME280;45426;44.726;10.390;2022-12-29T17:39:53;101158.03;;;10.39;100.00
59608;BME280;45426;44.726;10.390;2022-12-29T17:42:21;101151.81;;;10.16;100.00
59608;BME280;45426;44.726;10.390;2022-12-29T17:44:47;101147.34;;;10.43;100.00
59608;BME280;45426;44.726;10.390;2022-12-29T17:47:16;101133.66;;;10.25;100.00
59608;BME280;45426;44.726;10.390;2022-12-29T17:49:42;101138.56;;;10.15;100.00
59608;BME280;45426;44.726;10.390;2022-12-29T17:52:15;101146.53;;;9.88;100.00
59608;BME280;45426;44.726;10.390;2022-12-29T17:54:46;101145.19;;;10.00;100.00
59608;BME280;45426;44.726;10.390;2022-12-29T17:57:22;101158.56;;;10.50;100.00
59608;BME280;45426;44.726;10.390;2022-12-29T17:59:49;101156.63;;;10.19;100.00
59608;BME280;45426;44.726;10.390;2022-12-29T18:04:46;101175.47;;;10.47;100.00
59608;BME280;45426;44.726;10.390;2022-12-29T18:07:12;101174.50;;;10.43;100.00
59608;BME280;45426;44.726;10.390;2022-12-29T18:09:37;101180.34;;;10.59;100.00
59608;BME280;45426;44.726;10.390;2022-12-29T18:12:03;101171.38;;;10.58;100.00
59608;BME280;45426;44.726;10.390;2022-12-29T18:14:31;101165.16;;;10.04;100.00
59608;BME280;45426;44.726;10.390;2022-12-29T18:17:19;101181.13;;;10.05;100.00
59608;BME280;45426;44.726;10.390;2022-12-29T18:19:45;101174.63;;;10.38;100.00
59608;BME280;45426;44.726;10.390;2022-12-29T18:22:10;101168.44;;;9.92;100.00
59608;BME280;45426;44.726;10.390;2022-12-29T18:24:36;101176.91;;;9.90;100.00
59608;BME280;45426;44.726;10.390;2022-12-29T18:27:11;101178.50;;;10.14;100.00
59608;BME280;45426;44.726;10.390;2022-12-29T18:29:37;101162.06;;;10.42;100.00
59608;BME280;45426;44.726;10.390;2022-12-29T18:32:04;101165.06;;;9.86;100.00
59608;BME280;45426;44.726;10.390;2022-12-29T18:34:32;101185.66;;;10.33;100.00
59608;BME280;45426;44.726;10.390;2022-12-29T18:37:00;101179.53;;;10.58;100.00
59608;BME280;45426;44.726;10.390;2022-12-29T18:39:27;101166.13;;;10.08;100.00
59608;BME280;45426;44.726;10.390;2022-12-29T18:41:52;101169.41;;;10.19;100.00
59608;BME280;45426;44.726;10.390;2022-12-29T18:44:18;101160.72;;;10.31;100.00
59608;BME280;45426;44.726;10.390;2022-12-29T18:46:44;101163.94;;;9.87;100.00
59608;BME280;45426;44.726;10.390;2022-12-29T18:49:10;101166.72;;;9.96;100.00
59608;BME280;45426;44.726;10.390;2022-12-29T18:51:35;101177.38;;;9.93;100.00
59608;BME280;45426;44.726;10.390;2022-12-29T18:54:00;101181.56;;;10.21;100.00
59608;BME280;45426;44.726;10.390;2022-12-29T18:56:27;101177.94;;;10.03;100.00
59608;BME280;45426;44.726;10.390;2022-12-29T18:58:52;101176.53;;;9.83;100.00
59608;BME280;45426;44.726;10.390;2022-12-29T19:01:23;101179.19;;;9.97;100.00
59608;BME280;45426;44.726;10.390;2022-12-29T19:03:49;101161.97;;;10.02;100.00
59608;BME280;45426;44.726;10.390;2022-12-29T19:06:14;101154.31;;;9.81;100.00
59608;BME280;45426;44.726;10.390;2022-12-29T19:08:43;101152.59;;;9.85;100.00
59608;BME280;45426;44.726;10.390;2022-12-29T19:11:08;101155.66;;;9.93;100.00
59608;BME280;45426;44.726;10.390;2022-12-29T19:13:34;101163.31;;;9.90;100.00
59608;BME280;45426;44.726;10.390;2022-12-29T19:16:02;101171.94;;;10.15;100.00
59608;BME280;45426;44.726;10.390;2022-12-29T19:18:27;101174.56;;;9.98;100.00
59608;BME280;45426;44.726;10.390;2022-12-29T19:20:59;101159.72;;;10.04;100.00
59608;BME280;45426;44.726;10.390;2022-12-29T19:23:25;101177.94;;;10.03;100.00
59608;BME280;45426;44.726;10.390;2022-12-29T19:25:53;101175.13;;;10.40;100.00
59608;BME280;45426;44.726;10.390;2022-12-29T19:28:24;101147.88;;;10.54;100.00
59608;BME280;45426;44.726;10.390;2022-12-29T19:30:51;101134.91;;;9.65;100.00
59608;BME280;45426;44.726;10.390;2022-12-29T19:33:17;101150.75;;;9.72;100.00
59608;BME280;45426;44.726;10.390;2022-12-29T19:35:43;101152.44;;;10.13;100.00
59608;BME280;45426;44.726;10.390;2022-12-29T19:38:11;101133.59;;;10.39;100.00
59608;BME280;45426;44.726;10.390;2022-12-29T19:40:41;101145.75;;;9.88;100.00
59608;BME280;45426;44.726;10.390;2022-12-29T19:43:11;101160.38;;;10.01;100.00
59608;BME280;45426;44.726;10.390;2022-12-29T19:45:39;101165.50;;;10.34;100.00
59608;BME280;45426;44.726;10.390;2022-12-29T19:48:06;101125.06;;;10.32;100.00
59608;BME280;45426;44.726;10.390;2022-12-29T19:50:32;101150.38;;;9.65;100.00
59608;BME280;45426;44.726;10.390;2022-12-29T19:52:57;101157.31;;;10.25;100.00
59608;BME280;45426;44.726;10.390;2022-12-29T19:55:23;101154.31;;;9.81;100.00
59608;BME280;45426;44.726;10.390;2022-12-29T19:57:53;101174.78;;;10.33;100.00
59608;BME280;45426;44.726;10.390;2022-12-29T20:00:19;101151.63;;;10.35;100.00
59608;BME280;45426;44.726;10.390;2022-12-29T20:02:44;101119.66;;;10.01;100.00
59608;BME280;45426;44.726;10.390;2022-12-29T20:05:10;101122.63;;;9.68;100.00
59608;BME280;45426;44.726;10.390;2022-12-29T20:07:36;101140.13;;;10.07;100.00
59608;BME280;45426;44.726;10.390;2022-12-29T20:10:03;101141.03;;;10.25;100.00
59608;BME280;45426;44.726;10.390;2022-12-29T20:12:29;101137.03;;;10.00;100.00
59608;BME280;45426;44.726;10.390;2022-12-29T20:14:57;101131.19;;;10.06;100.00
59608;BME280;45426;44.726;10.390;2022-12-29T20:17:23;101120.53;;;10.19;100.00
59608;BME280;45426;44.726;10.390;2022-12-29T20:19:48;101130.78;;;10.22;100.00
59608;BME280;45426;44.726;10.390;2022-12-29T20:22:14;101133.94;;;9.93;100.00
59608;BME280;45426;44.726;10.390;2022-12-29T20:24:40;101134.75;;;10.24;100.00
59608;BME280;45426;44.726;10.390;2022-12-29T20:27:07;101131.59;;;10.00;100.00
59608;BME280;45426;44.726;10.390;2022-12-29T20:29:35;101133.00;;;9.66;100.00
59608;BME280;45426;44.726;10.390;2022-12-29T20:32:15;101128.97;;;9.86;100.00
59608;BME280;45426;44.726;10.390;2022-12-29T20:34:42;101121.34;;;9.97;100.00
59608;BME280;45426;44.726;10.390;2022-12-29T20:37:08;101136.63;;;10.15;100.00
59608;BME280;45426;44.726;10.390;2022-12-29T20:39:34;101138.00;;;10.04;100.00
59608;BME280;45426;44.726;10.390;2022-12-29T20:42:03;101143.09;;;10.59;100.00
59608;BME280;45426;44.726;10.390;2022-12-29T20:44:32;101149.00;;;10.21;100.00
59608;BME280;45426;44.726;10.390;2022-12-29T20:47:06;101140.66;;;10.49;100.00
59608;BME280;45426;44.726;10.390;2022-12-29T20:49:52;101134.56;;;10.43;100.00
59608;BME280;45426;44.726;10.390;2022-12-29T20:52:17;101134.53;;;10.35;100.00
59608;BME280;45426;44.726;10.390;2022-12-29T20:54:43;101115.56;;;10.52;100.00
59608;BME280;45426;44.726;10.390;2022-12-29T20:57:12;101106.91;;;10.41;100.00
59608;BME280;45426;44.726;10.390;2022-12-29T20:59:38;101093.72;;;9.63;100.00
59608;BME280;45426;44.726;10.390;2022-12-29T21:02:03;101106.16;;;9.42;100.00
59608;BME280;45426;44.726;10.390;2022-12-29T21:04:29;101117.56;;;9.52;100.00
59608;BME280;45426;44.726;10.390;2022-12-29T21:06:54;101121.75;;;9.36;100.00
59608;BME280;45426;44.726;10.390;2022-12-29T21:09:20;101108.78;;;10.01;100.00
59608;BME280;45426;44.726;10.390;2022-12-29T21:11:46;101122.38;;;9.56;100.00
59608;BME280;45426;44.726;10.390;2022-12-29T21:14:12;101118.69;;;10.05;100.00
59608;BME280;45426;44.726;10.390;2022-12-29T21:16:37;101121.19;;;9.70;100.00
59608;BME280;45426;44.726;10.390;2022-12-29T21:19:04;101131.38;;;10.19;100.00
59608;BME280;45426;44.726;10.390;2022-12-29T21:21:29;101111.50;;;10.01;100.00
59608;BME280;45426;44.726;10.390;2022-12-29T21:23:55;101109.41;;;10.29;100.00
59608;BME280;45426;44.726;10.390;2022-12-29T21:26:30;101117.63;;;10.15;100.00
59608;BME280;45426;44.726;10.390;2022-12-29T21:28:56;101117.69;;;10.24;100.00
59608;BME280;45426;44.726;10.390;2022-12-29T21:31:29;101116.88;;;10.23;100.00
59608;BME280;45426;44.726;10.390;2022-12-29T21:33:59;101105.81;;;10.42;100.00
59608;BME280;45426;44.726;10.390;2022-12-29T21:36:26;101107.25;;;10.48;100.00
59608;BME280;45426;44.726;10.390;2022-12-29T21:38:52;101104.22;;;10.50;100.00
59608;BME280;45426;44.726;10.390;2022-12-29T21:41:48;101107.44;;;10.21;100.00
59608;BME280;45426;44.726;10.390;2022-12-29T21:44:32;101111.16;;;10.25;100.00
59608;BME280;45426;44.726;10.390;2022-12-29T21:47:16;101099.88;;;10.40;100.00
59608;BME280;45426;44.726;10.390;2022-12-29T21:49:42;101099.59;;;10.19;100.00
59608;BME280;45426;44.726;10.390;2022-12-29T21:52:07;101092.03;;;10.39;100.00
59608;BME280;45426;44.726;10.390;2022-12-29T21:54:33;101088.88;;;10.14;100.00
59608;BME280;45426;44.726;10.390;2022-12-29T21:57:27;101097.22;;;9.86;100.00
59608;BME280;45426;44.726;10.390;2022-12-29T22:00:11;101114.03;;;9.97;100.00
59608;BME280;45426;44.726;10.390;2022-12-29T22:02:55;101126.44;;;9.89;100.00
59608;BME280;45426;44.726;10.390;2022-12-29T22:05:42;101113.44;;;10.32;100.00
59608;BME280;45426;44.726;10.390;2022-12-29T22:08:26;101107.41;;;10.12;100.00
59608;BME280;45426;44.726;10.390;2022-12-29T22:11:10;101112.06;;;10.20;100.00
59608;BME280;45426;44.726;10.390;2022-12-29T22:13:54;101101.81;;;10.17;100.00
59608;BME280;45426;44.726;10.390;2022-12-29T22:16:22;101096.81;;;10.02;100.00
59608;BME280;45426;44.726;10.390;2022-12-29T22:18:48;101094.44;;;10.09;100.00
59608;BME280;45426;44.726;10.390;2022-12-29T22:21:14;101101.22;;;10.20;100.00
59608;BME280;45426;44.726;10.390;2022-12-29T22:23:39;101119.91;;;10.53;100.00
59608;BME280;45426;44.726;10.390;2022-12-29T22:26:07;101114.59;;;10.17;100.00
59608;BME280;45426;44.726;10.390;2022-12-29T22:28:41;101111.03;;;9.99;100.00
59608;BME280;45426;44.726;10.390;2022-12-29T22:33:45;101100.41;;;10.20;100.00
59608;BME280;45426;44.726;10.390;2022-12-29T22:36:11;101091.63;;;10.23;100.00
59608;BME280;45426;44.726;10.390;2022-12-29T22:38:36;101094.56;;;10.04;100.00
59608;BME280;45426;44.726;10.390;2022-12-29T22:41:01;101081.84;;;10.44;100.00
59608;BME280;45426;44.726;10.390;2022-12-29T22:43:27;101076.28;;;10.18;100.00
59608;BME280;45426;44.726;10.390;2022-12-29T22:45:54;101081.66;;;10.01;100.00
59608;BME280;45426;44.726;10.390;2022-12-29T22:48:19;101097.56;;;9.94;100.00
59608;BME280;45426;44.726;10.390;2022-12-29T22:50:45;101081.19;;;10.07;100.00
59608;BME280;45426;44.726;10.390;2022-12-29T22:53:10;101081.31;;;9.71;100.00
59608;BME280;45426;44.726;10.390;2022-12-29T22:55:36;101079.38;;;9.94;100.00
59608;BME280;45426;44.726;10.390;2022-12-29T22:58:01;101085.47;;;10.00;100.00
59608;BME280;45426;44.726;10.390;2022-12-29T23:00:27;101097.38;;;9.90;100.00
59608;BME280;45426;44.726;10.390;2022-12-29T23:02:52;101092.94;;;10.25;100.00
59608;BME280;45426;44.726;10.390;2022-12-29T23:05:18;101072.63;;;10.23;100.00
59608;BME280;45426;44.726;10.390;2022-12-29T23:07:43;101066.63;;;10.35;100.00
59608;BME280;45426;44.726;10.390;2022-12-29T23:10:09;101065.22;;;9.75;100.00
59608;BME280;45426;44.726;10.390;2022-12-29T23:12:34;101070.84;;;9.87;100.00